sensor_id;sensor_type;location;lat;lon;timestamp;pressure;altitude;pressure_sealevel;temperature;humidity
61742;BME280;47650;49.848;9.620;2023-07-29T00:00:40;99066.69;;;18.85;88.29
61742;BME280;47650;49.848;9.620;2023-07-29T00:03:07;99060.91;;;18.82;88.66
61742;BME280;47650;49.848;9.620;2023-07-29T00:05:34;99059.28;;;18.74;88.61
61742;BME280;47650;49.848;9.620;2023-07-29T00:07:59;99063.81;;;18.73;88.72
61742;BME280;47650;49.848;9.620;2023-07-29T00:10:25;99065.06;;;18.71;88.55
61742;BME280;47650;49.848;9.620;2023-07-29T00:12:51;99063.22;;;18.65;88.29
61742;BME280;47650;49.848;9.620;2023-07-29T00:15:18;99053.94;;;18.60;88.09
61742;BME280;47650;49.848;9.620;2023-07-29T00:17:43;99045.31;;;18.52;87.97
61742;BME280;47650;49.848;9.620;2023-07-29T00:20:08;99055.84;;;18.53;88.19
61742;BME280;47650;49.848;9.620;2023-07-29T00:22:33;99058.94;;;18.50;88.55
61742;BME280;47650;49.848;9.620;2023-07-29T00:24:59;99059.34;;;18.47;88.52
61742;BME280;47650;49.848;9.620;2023-07-29T00:27:24;99028.84;;;18.21;89.00
61742;BME280;47650;49.848;9.620;2023-07-29T00:29:50;99010.31;;;18.07;88.86
61742;BME280;47650;49.848;9.620;2023-07-29T00:32:15;99050.28;;;18.35;88.95
61742;BME280;47650;49.848;9.620;2023-07-29T00:34:40;99061.84;;;18.35;89.35
61742;BME280;47650;49.848;9.620;2023-07-29T00:37:07;99053.38;;;18.45;90.06
61742;BME280;47650;49.848;9.620;2023-07-29T00:39:32;99063.44;;;18.56;89.81
61742;BME280;47650;49.848;9.620;2023-07-29T00:41:58;99067.56;;;18.66;88.94
61742;BME280;47650;49.848;9.620;2023-07-29T00:44:23;99040.72;;;18.66;89.24
61742;BME280;47650;49.848;9.620;2023-07-29T00:46:50;99059.22;;;18.94;88.75
61742;BME280;47650;49.848;9.620;2023-07-29T00:49:18;99056.69;;;19.06;88.28
61742;BME280;47650;49.848;9.620;2023-07-29T00:51:43;99036.22;;;19.05;87.56
61742;BME280;47650;49.848;9.620;2023-07-29T00:54:09;99030.00;;;19.11;86.69
61742;BME280;47650;49.848;9.620;2023-07-29T00:56:34;99037.38;;;19.22;87.10
61742;BME280;47650;49.848;9.620;2023-07-29T00:59:01;99042.50;;;19.30;87.38
61742;BME280;47650;49.848;9.620;2023-07-29T01:01:30;99030.13;;;19.29;87.28
61742;BME280;47650;49.848;9.620;2023-07-29T01:03:56;99037.91;;;19.38;86.80
61742;BME280;47650;49.848;9.620;2023-07-29T01:06:29;99024.28;;;19.32;86.18
61742;BME280;47650;49.848;9.620;2023-07-29T01:12:09;99006.59;;;19.18;86.15
61742;BME280;47650;49.848;9.620;2023-07-29T01:17:23;99022.97;;;19.10;86.63
61742;BME280;47650;49.848;9.620;2023-07-29T01:20:01;99026.78;;;18.95;86.86
61742;BME280;47650;49.848;9.620;2023-07-29T01:22:32;99027.81;;;18.94;87.55
61742;BME280;47650;49.848;9.620;2023-07-29T01:24:58;99022.91;;;18.85;87.60
61742;BME280;47650;49.848;9.620;2023-07-29T01:27:25;99021.47;;;18.82;87.35
61742;BME280;47650;49.848;9.620;2023-07-29T01:29:50;99017.53;;;18.78;87.52
61742;BME280;47650;49.848;9.620;2023-07-29T01:37:54;99011.75;;;18.81;88.53
61742;BME280;47650;49.848;9.620;2023-07-29T01:40:22;98974.63;;;18.65;88.29
61742;BME280;47650;49.848;9.620;2023-07-29T01:42:48;98985.31;;;18.78;88.33
61742;BME280;47650;49.848;9.620;2023-07-29T01:45:14;99006.94;;;18.96;88.15
61742;BME280;47650;49.848;9.620;2023-07-29T01:47:39;99011.44;;;19.03;87.77
61742;BME280;47650;49.848;9.620;2023-07-29T01:50:07;99003.81;;;19.00;86.99
61742;BME280;47650;49.848;9.620;2023-07-29T01:52:32;99000.91;;;19.01;86.45
61742;BME280;47650;49.848;9.620;2023-07-29T01:54:58;98992.47;;;18.97;86.71
61742;BME280;47650;49.848;9.620;2023-07-29T01:57:23;98961.53;;;18.82;86.86
61742;BME280;47650;49.848;9.620;2023-07-29T01:59:48;98992.59;;;19.09;86.76
61742;BME280;47650;49.848;9.620;2023-07-29T02:02:13;98998.38;;;19.13;86.70
61742;BME280;47650;49.848;9.620;2023-07-29T02:04:40;98989.69;;;19.11;85.71
61742;BME280;47650;49.848;9.620;2023-07-29T02:07:05;98982.25;;;19.13;85.64
61742;BME280;47650;49.848;9.620;2023-07-29T02:09:31;98988.41;;;19.20;85.87
61742;BME280;47650;49.848;9.620;2023-07-29T02:11:57;98986.09;;;19.24;85.59
61742;BME280;47650;49.848;9.620;2023-07-29T02:14:22;98938.13;;;18.95;85.93
61742;BME280;47650;49.848;9.620;2023-07-29T02:16:48;98988.56;;;19.25;85.00
61742;BME280;47650;49.848;9.620;2023-07-29T02:19:13;98964.00;;;19.22;85.33
61742;BME280;47650;49.848;9.620;2023-07-29T02:21:38;98966.66;;;19.28;84.45
61742;BME280;47650;49.848;9.620;2023-07-29T02:24:05;98982.78;;;19.28;84.72
61742;BME280;47650;49.848;9.620;2023-07-29T02:26:30;98970.16;;;19.29;85.13
61742;BME280;47650;49.848;9.620;2023-07-29T02:28:56;98928.56;;;19.06;85.23
61742;BME280;47650;49.848;9.620;2023-07-29T02:31:24;98929.72;;;19.17;84.95
61742;BME280;47650;49.848;9.620;2023-07-29T02:33:50;98965.50;;;19.43;83.95
61742;BME280;47650;49.848;9.620;2023-07-29T02:36:16;98965.44;;;19.49;84.39
61742;BME280;47650;49.848;9.620;2023-07-29T02:38:41;98921.81;;;19.22;84.04
61742;BME280;47650;49.848;9.620;2023-07-29T02:41:08;98944.84;;;19.43;83.68
61742;BME280;47650;49.848;9.620;2023-07-29T02:43:36;98876.91;;;19.04;84.03
61742;BME280;47650;49.848;9.620;2023-07-29T02:46:02;98965.41;;;19.56;83.38
61742;BME280;47650;49.848;9.620;2023-07-29T02:48:28;98964.38;;;19.57;83.43
61742;BME280;47650;49.848;9.620;2023-07-29T02:50:55;98971.19;;;19.53;83.62
61742;BME280;47650;49.848;9.620;2023-07-29T02:53:22;98972.44;;;19.57;84.87
61742;BME280;47650;49.848;9.620;2023-07-29T02:55:48;98977.00;;;19.50;84.80
61742;BME280;47650;49.848;9.620;2023-07-29T02:58:13;98970.69;;;19.38;86.18
61742;BME280;47650;49.848;9.620;2023-07-29T03:00:39;98976.13;;;19.31;87.74
61742;BME280;47650;49.848;9.620;2023-07-29T03:03:07;98975.56;;;19.22;88.70
61742;BME280;47650;49.848;9.620;2023-07-29T03:05:34;98973.13;;;19.21;91.16
61742;BME280;47650;49.848;9.620;2023-07-29T03:08:05;98962.84;;;19.11;93.55
61742;BME280;47650;49.848;9.620;2023-07-29T03:10:30;98974.41;;;19.11;95.75
61742;BME280;47650;49.848;9.620;2023-07-29T03:12:57;98965.75;;;19.09;95.17
61742;BME280;47650;49.848;9.620;2023-07-29T03:15:23;98974.81;;;19.08;96.44
61742;BME280;47650;49.848;9.620;2023-07-29T03:17:50;98956.53;;;18.92;97.84
61742;BME280;47650;49.848;9.620;2023-07-29T03:20:15;98966.66;;;18.96;97.27
61742;BME280;47650;49.848;9.620;2023-07-29T03:22:43;98960.47;;;18.89;98.93
61742;BME280;47650;49.848;9.620;2023-07-29T03:25:08;98938.44;;;18.74;97.74
61742;BME280;47650;49.848;9.620;2023-07-29T03:27:34;98945.03;;;18.78;97.97
61742;BME280;47650;49.848;9.620;2023-07-29T03:30:02;98942.59;;;18.63;100.00
61742;BME280;47650;49.848;9.620;2023-07-29T03:32:27;98942.56;;;18.76;100.00
61742;BME280;47650;49.848;9.620;2023-07-29T03:34:54;98940.47;;;18.85;100.00
61742;BME280;47650;49.848;9.620;2023-07-29T03:37:20;98940.66;;;18.90;100.00
61742;BME280;47650;49.848;9.620;2023-07-29T03:39:47;98920.00;;;18.84;100.00
61742;BME280;47650;49.848;9.620;2023-07-29T03:42:12;98920.84;;;18.85;100.00
61742;BME280;47650;49.848;9.620;2023-07-29T03:44:38;98929.56;;;18.67;100.00
61742;BME280;47650;49.848;9.620;2023-07-29T03:47:05;98919.59;;;18.80;100.00
61742;BME280;47650;49.848;9.620;2023-07-29T03:49:31;98928.06;;;18.39;100.00
61742;BME280;47650;49.848;9.620;2023-07-29T03:51:57;98933.72;;;18.69;100.00
61742;BME280;47650;49.848;9.620;2023-07-29T03:54:22;98934.66;;;18.82;100.00
61742;BME280;47650;49.848;9.620;2023-07-29T03:56:47;98917.97;;;18.79;100.00
61742;BME280;47650;49.848;9.620;2023-07-29T03:59:13;98925.72;;;18.94;100.00
61742;BME280;47650;49.848;9.620;2023-07-29T04:01:38;98907.09;;;19.00;100.00
61742;BME280;47650;49.848;9.620;2023-07-29T04:04:03;98909.53;;;19.08;100.00
61742;BME280;47650;49.848;9.620;2023-07-29T04:06:29;98920.06;;;19.09;100.00
61742;BME280;47650;49.848;9.620;2023-07-29T04:08:54;98894.72;;;18.98;100.00
61742;BME280;47650;49.848;9.620;2023-07-29T04:11:20;98892.81;;;19.06;100.00
61742;BME280;47650;49.848;9.620;2023-07-29T04:13:46;98902.84;;;19.17;100.00
61742;BME280;47650;49.848;9.620;2023-07-29T04:16:11;98900.78;;;19.19;100.00
61742;BME280;47650;49.848;9.620;2023-07-29T04:18:38;98896.69;;;19.10;100.00
61742;BME280;47650;49.848;9.620;2023-07-29T04:21:03;98901.44;;;19.14;100.00
61742;BME280;47650;49.848;9.620;2023-07-29T04:23:28;98900.06;;;19.05;100.00
61742;BME280;47650;49.848;9.620;2023-07-29T04:25:54;98905.47;;;18.98;100.00
61742;BME280;47650;49.848;9.620;2023-07-29T04:28:19;98911.88;;;18.97;100.00
61742;BME280;47650;49.848;9.620;2023-07-29T04:30:46;98920.81;;;18.91;100.00
61742;BME280;47650;49.848;9.620;2023-07-29T04:33:12;98921.59;;;18.98;100.00
61742;BME280;47650;49.848;9.620;2023-07-29T04:35:39;98895.59;;;18.92;100.00
61742;BME280;47650;49.848;9.620;2023-07-29T04:38:04;98903.38;;;19.01;100.00
61742;BME280;47650;49.848;9.620;2023-07-29T04:40:32;98895.22;;;19.14;100.00
61742;BME280;47650;49.848;9.620;2023-07-29T04:43:00;98905.69;;;19.22;100.00
61742;BME280;47650;49.848;9.620;2023-07-29T04:45:30;98857.06;;;19.05;100.00
61742;BME280;47650;49.848;9.620;2023-07-29T04:47:56;98884.69;;;19.38;100.00
61742;BME280;47650;49.848;9.620;2023-07-29T04:50:21;98883.81;;;19.44;100.00
61742;BME280;47650;49.848;9.620;2023-07-29T04:52:47;98889.50;;;19.54;100.00
61742;BME280;47650;49.848;9.620;2023-07-29T04:55:13;98895.09;;;19.52;100.00
61742;BME280;47650;49.848;9.620;2023-07-29T04:57:38;98857.16;;;19.42;100.00
61742;BME280;47650;49.848;9.620;2023-07-29T05:00:05;98898.72;;;19.65;100.00
61742;BME280;47650;49.848;9.620;2023-07-29T05:02:31;98910.66;;;19.50;100.00
61742;BME280;47650;49.848;9.620;2023-07-29T05:04:56;98906.31;;;19.49;100.00
61742;BME280;47650;49.848;9.620;2023-07-29T05:07:21;98894.09;;;19.72;100.00
61742;BME280;47650;49.848;9.620;2023-07-29T05:09:47;98894.94;;;19.72;100.00
61742;BME280;47650;49.848;9.620;2023-07-29T05:12:12;98891.06;;;19.87;100.00
61742;BME280;47650;49.848;9.620;2023-07-29T05:14:38;98887.56;;;20.05;100.00
61742;BME280;47650;49.848;9.620;2023-07-29T05:17:03;98811.28;;;19.81;100.00
61742;BME280;47650;49.848;9.620;2023-07-29T05:19:28;98889.97;;;20.43;100.00
61742;BME280;47650;49.848;9.620;2023-07-29T05:21:54;98890.75;;;20.51;100.00
61742;BME280;47650;49.848;9.620;2023-07-29T05:24:19;98879.03;;;20.57;100.00
61742;BME280;47650;49.848;9.620;2023-07-29T05:26:45;98885.25;;;20.57;100.00
61742;BME280;47650;49.848;9.620;2023-07-29T05:29:10;98892.22;;;20.65;100.00
61742;BME280;47650;49.848;9.620;2023-07-29T05:31:35;98899.63;;;20.70;100.00
61742;BME280;47650;49.848;9.620;2023-07-29T05:34:02;98873.09;;;20.36;100.00
61742;BME280;47650;49.848;9.620;2023-07-29T05:36:27;98911.44;;;20.50;100.00
61742;BME280;47650;49.848;9.620;2023-07-29T05:38:52;98893.75;;;20.42;100.00
61742;BME280;47650;49.848;9.620;2023-07-29T05:41:18;98909.56;;;20.69;100.00
61742;BME280;47650;49.848;9.620;2023-07-29T05:43:43;98911.56;;;20.74;100.00
61742;BME280;47650;49.848;9.620;2023-07-29T05:46:09;98916.56;;;21.00;100.00
61742;BME280;47650;49.848;9.620;2023-07-29T05:48:36;98913.66;;;20.23;100.00
61742;BME280;47650;49.848;9.620;2023-07-29T05:51:01;98927.97;;;20.54;100.00
61742;BME280;47650;49.848;9.620;2023-07-29T05:53:26;98927.72;;;20.25;100.00
61742;BME280;47650;49.848;9.620;2023-07-29T05:55:52;98926.50;;;20.39;100.00
61742;BME280;47650;49.848;9.620;2023-07-29T05:58:17;98935.91;;;19.75;100.00
61742;BME280;47650;49.848;9.620;2023-07-29T06:00:42;98930.94;;;19.71;100.00
61742;BME280;47650;49.848;9.620;2023-07-29T06:03:08;98934.19;;;20.17;100.00
61742;BME280;47650;49.848;9.620;2023-07-29T06:05:33;98937.50;;;20.19;100.00
61742;BME280;47650;49.848;9.620;2023-07-29T06:07:58;98943.09;;;19.99;100.00
61742;BME280;47650;49.848;9.620;2023-07-29T06:10:24;98941.50;;;19.91;100.00
61742;BME280;47650;49.848;9.620;2023-07-29T06:12:49;98938.56;;;19.49;100.00
61742;BME280;47650;49.848;9.620;2023-07-29T06:15:14;98898.97;;;19.38;100.00
61742;BME280;47650;49.848;9.620;2023-07-29T06:17:41;98942.78;;;19.89;100.00
61742;BME280;47650;49.848;9.620;2023-07-29T06:20:08;98935.13;;;20.11;100.00
61742;BME280;47650;49.848;9.620;2023-07-29T06:22:34;98933.59;;;19.97;100.00
61742;BME280;47650;49.848;9.620;2023-07-29T06:25:00;98923.25;;;19.75;100.00
61742;BME280;47650;49.848;9.620;2023-07-29T06:27:26;98925.53;;;20.15;100.00
61742;BME280;47650;49.848;9.620;2023-07-29T06:29:51;98903.19;;;19.96;100.00
61742;BME280;47650;49.848;9.620;2023-07-29T06:32:19;98918.75;;;20.13;100.00
61742;BME280;47650;49.848;9.620;2023-07-29T06:34:44;98909.97;;;20.17;100.00
61742;BME280;47650;49.848;9.620;2023-07-29T06:37:11;98919.72;;;20.18;100.00
61742;BME280;47650;49.848;9.620;2023-07-29T06:39:37;98935.63;;;20.20;100.00
61742;BME280;47650;49.848;9.620;2023-07-29T06:42:03;98928.22;;;19.97;100.00
61742;BME280;47650;49.848;9.620;2023-07-29T06:44:29;98926.34;;;19.79;100.00
61742;BME280;47650;49.848;9.620;2023-07-29T06:46:57;98923.28;;;19.68;100.00
61742;BME280;47650;49.848;9.620;2023-07-29T06:49:23;98920.81;;;19.92;100.00
61742;BME280;47650;49.848;9.620;2023-07-29T06:51:49;98909.16;;;19.80;100.00
61742;BME280;47650;49.848;9.620;2023-07-29T06:54:16;98889.72;;;19.78;100.00
61742;BME280;47650;49.848;9.620;2023-07-29T06:56:41;98921.56;;;19.99;100.00
61742;BME280;47650;49.848;9.620;2023-07-29T06:59:06;98916.56;;;19.59;100.00
61742;BME280;47650;49.848;9.620;2023-07-29T07:01:33;98900.28;;;19.54;100.00
61742;BME280;47650;49.848;9.620;2023-07-29T07:04:00;98914.22;;;19.19;100.00
61742;BME280;47650;49.848;9.620;2023-07-29T07:06:27;98932.41;;;19.17;100.00
61742;BME280;47650;49.848;9.620;2023-07-29T07:08:52;98936.59;;;19.63;100.00
61742;BME280;47650;49.848;9.620;2023-07-29T07:11:18;98934.00;;;19.50;100.00
61742;BME280;47650;49.848;9.620;2023-07-29T07:13:43;98898.94;;;19.88;100.00
61742;BME280;47650;49.848;9.620;2023-07-29T07:16:10;98927.38;;;19.96;100.00
61742;BME280;47650;49.848;9.620;2023-07-29T07:18:35;98927.22;;;19.72;100.00
61742;BME280;47650;49.848;9.620;2023-07-29T07:21:01;98920.81;;;19.67;100.00
61742;BME280;47650;49.848;9.620;2023-07-29T07:23:27;98919.09;;;20.35;100.00
61742;BME280;47650;49.848;9.620;2023-07-29T07:25:56;98924.75;;;20.45;99.48
61742;BME280;47650;49.848;9.620;2023-07-29T07:28:22;98918.28;;;20.34;100.00
61742;BME280;47650;49.848;9.620;2023-07-29T07:30:48;98902.00;;;20.59;96.71
61742;BME280;47650;49.848;9.620;2023-07-29T07:33:13;98904.09;;;20.76;96.35
61742;BME280;47650;49.848;9.620;2023-07-29T07:35:40;98907.72;;;20.51;97.43
61742;BME280;47650;49.848;9.620;2023-07-29T07:38:09;98869.09;;;20.27;96.94
61742;BME280;47650;49.848;9.620;2023-07-29T07:40:36;98896.06;;;20.99;94.29
61742;BME280;47650;49.848;9.620;2023-07-29T07:43:02;98913.69;;;21.26;93.80
61742;BME280;47650;49.848;9.620;2023-07-29T07:45:27;98900.50;;;21.71;91.02
61742;BME280;47650;49.848;9.620;2023-07-29T07:47:54;98917.16;;;21.80;85.39
61742;BME280;47650;49.848;9.620;2023-07-29T07:50:25;98900.09;;;22.15;86.71
61742;BME280;47650;49.848;9.620;2023-07-29T07:52:56;98920.97;;;21.25;87.38
61742;BME280;47650;49.848;9.620;2023-07-29T07:55:21;98931.88;;;21.18;90.59
61742;BME280;47650;49.848;9.620;2023-07-29T07:57:46;98806.63;;;19.88;91.69
61742;BME280;47650;49.848;9.620;2023-07-29T08:00:13;98951.63;;;20.33;95.64
61742;BME280;47650;49.848;9.620;2023-07-29T08:02:40;98965.66;;;19.80;100.00
61742;BME280;47650;49.848;9.620;2023-07-29T08:05:06;98963.59;;;19.75;100.00
61742;BME280;47650;49.848;9.620;2023-07-29T08:07:32;98958.94;;;19.89;100.00
61742;BME280;47650;49.848;9.620;2023-07-29T08:09:58;98959.25;;;19.49;100.00
61742;BME280;47650;49.848;9.620;2023-07-29T08:12:23;98968.00;;;19.38;100.00
61742;BME280;47650;49.848;9.620;2023-07-29T08:14:48;98957.97;;;19.51;100.00
61742;BME280;47650;49.848;9.620;2023-07-29T08:17:16;98948.69;;;18.90;100.00
61742;BME280;47650;49.848;9.620;2023-07-29T08:19:43;98955.03;;;19.03;100.00
61742;BME280;47650;49.848;9.620;2023-07-29T08:22:09;98946.34;;;19.32;100.00
61742;BME280;47650;49.848;9.620;2023-07-29T08:24:34;98917.84;;;19.00;100.00
61742;BME280;47650;49.848;9.620;2023-07-29T08:26:59;98922.94;;;19.40;100.00
61742;BME280;47650;49.848;9.620;2023-07-29T08:29:26;98916.13;;;19.62;100.00
61742;BME280;47650;49.848;9.620;2023-07-29T08:31:51;98927.50;;;20.57;100.00
61742;BME280;47650;49.848;9.620;2023-07-29T08:34:17;98928.88;;;20.66;100.00
61742;BME280;47650;49.848;9.620;2023-07-29T08:36:42;98958.66;;;20.71;100.00
61742;BME280;47650;49.848;9.620;2023-07-29T08:39:15;98964.13;;;20.64;100.00
61742;BME280;47650;49.848;9.620;2023-07-29T08:44:12;98930.31;;;20.99;100.00
61742;BME280;47650;49.848;9.620;2023-07-29T08:46:42;98942.66;;;21.42;100.00
61742;BME280;47650;49.848;9.620;2023-07-29T08:49:08;98916.53;;;21.31;100.00
61742;BME280;47650;49.848;9.620;2023-07-29T08:51:36;98950.94;;;20.75;100.00
61742;BME280;47650;49.848;9.620;2023-07-29T08:54:03;98969.75;;;20.63;100.00
61742;BME280;47650;49.848;9.620;2023-07-29T08:56:29;98975.84;;;20.15;100.00
61742;BME280;47650;49.848;9.620;2023-07-29T08:58:57;98951.53;;;19.27;100.00
61742;BME280;47650;49.848;9.620;2023-07-29T09:01:25;98972.09;;;19.47;100.00
61742;BME280;47650;49.848;9.620;2023-07-29T09:03:50;98971.72;;;19.11;100.00
61742;BME280;47650;49.848;9.620;2023-07-29T09:06:16;98959.97;;;19.06;100.00
61742;BME280;47650;49.848;9.620;2023-07-29T09:08:43;98954.09;;;19.47;100.00
61742;BME280;47650;49.848;9.620;2023-07-29T09:11:09;98967.53;;;19.72;100.00
61742;BME280;47650;49.848;9.620;2023-07-29T09:13:34;98949.69;;;20.22;100.00
61742;BME280;47650;49.848;9.620;2023-07-29T09:16:00;98944.31;;;20.89;100.00
61742;BME280;47650;49.848;9.620;2023-07-29T09:18:26;98959.97;;;20.80;99.87
61742;BME280;47650;49.848;9.620;2023-07-29T09:20:52;98948.47;;;21.81;97.16
61742;BME280;47650;49.848;9.620;2023-07-29T09:23:18;98956.63;;;22.57;92.51
61742;BME280;47650;49.848;9.620;2023-07-29T09:25:46;98924.09;;;23.09;90.47
61742;BME280;47650;49.848;9.620;2023-07-29T09:28:14;98945.72;;;24.33;84.11
61742;BME280;47650;49.848;9.620;2023-07-29T09:30:41;98945.34;;;24.69;87.42
61742;BME280;47650;49.848;9.620;2023-07-29T09:33:10;98943.78;;;22.93;74.66
61742;BME280;47650;49.848;9.620;2023-07-29T09:35:37;98940.31;;;22.81;83.32
61742;BME280;47650;49.848;9.620;2023-07-29T09:38:03;98941.00;;;22.88;85.69
61742;BME280;47650;49.848;9.620;2023-07-29T09:40:36;98944.00;;;22.22;87.73
61742;BME280;47650;49.848;9.620;2023-07-29T09:43:03;98911.13;;;25.49;79.44
61742;BME280;47650;49.848;9.620;2023-07-29T09:45:33;98873.50;;;28.27;73.30
61742;BME280;47650;49.848;9.620;2023-07-29T09:48:01;98911.16;;;30.93;64.62
61742;BME280;47650;49.848;9.620;2023-07-29T09:50:29;98922.19;;;30.45;49.08
61742;BME280;47650;49.848;9.620;2023-07-29T09:52:55;98912.94;;;31.83;56.55
61742;BME280;47650;49.848;9.620;2023-07-29T09:55:25;98904.81;;;29.58;56.69
61742;BME280;47650;49.848;9.620;2023-07-29T09:57:58;98920.97;;;31.79;55.77
61742;BME280;47650;49.848;9.620;2023-07-29T10:00:30;98926.56;;;28.55;50.47
61742;BME280;47650;49.848;9.620;2023-07-29T10:02:55;98930.06;;;27.65;53.26
61742;BME280;47650;49.848;9.620;2023-07-29T10:05:22;98935.66;;;29.30;49.73
61742;BME280;47650;49.848;9.620;2023-07-29T10:07:50;98908.66;;;31.77;56.29
61742;BME280;47650;49.848;9.620;2023-07-29T10:10:16;98907.25;;;32.49;46.57
61742;BME280;47650;49.848;9.620;2023-07-29T10:12:43;98890.56;;;32.95;47.89
61742;BME280;47650;49.848;9.620;2023-07-29T10:15:08;98888.88;;;33.53;45.24
61742;BME280;47650;49.848;9.620;2023-07-29T10:17:36;98889.91;;;34.81;46.48
61742;BME280;47650;49.848;9.620;2023-07-29T10:20:07;98884.91;;;34.75;45.18
61742;BME280;47650;49.848;9.620;2023-07-29T10:22:36;98885.22;;;36.41;43.26
61742;BME280;47650;49.848;9.620;2023-07-29T10:25:25;98892.28;;;35.44;39.96
61742;BME280;47650;49.848;9.620;2023-07-29T10:28:04;98890.84;;;33.62;36.68
61742;BME280;47650;49.848;9.620;2023-07-29T10:30:30;98855.75;;;35.56;37.85
61742;BME280;47650;49.848;9.620;2023-07-29T10:32:58;98876.84;;;35.52;34.46
61742;BME280;47650;49.848;9.620;2023-07-29T10:35:25;98879.41;;;37.18;32.14
61742;BME280;47650;49.848;9.620;2023-07-29T10:37:53;98882.84;;;35.54;33.40
61742;BME280;47650;49.848;9.620;2023-07-29T10:40:19;98868.78;;;32.99;37.67
61742;BME280;47650;49.848;9.620;2023-07-29T10:43:02;98882.28;;;32.87;38.18
61742;BME280;47650;49.848;9.620;2023-07-29T10:45:36;98885.34;;;34.02;39.30
61742;BME280;47650;49.848;9.620;2023-07-29T10:48:12;98876.47;;;33.65;35.98
61742;BME280;47650;49.848;9.620;2023-07-29T10:50:38;98891.66;;;30.38;43.68
61742;BME280;47650;49.848;9.620;2023-07-29T10:53:04;98874.84;;;32.37;38.47
61742;BME280;47650;49.848;9.620;2023-07-29T10:55:32;98873.53;;;33.07;36.49
61742;BME280;47650;49.848;9.620;2023-07-29T10:58:15;98861.75;;;33.61;37.12
61742;BME280;47650;49.848;9.620;2023-07-29T11:00:43;98878.50;;;31.77;40.44
61742;BME280;47650;49.848;9.620;2023-07-29T11:03:12;98859.41;;;33.45;39.10
61742;BME280;47650;49.848;9.620;2023-07-29T11:05:52;98866.88;;;33.76;36.18
61742;BME280;47650;49.848;9.620;2023-07-29T11:08:30;98871.53;;;32.26;39.73
61742;BME280;47650;49.848;9.620;2023-07-29T11:11:07;98860.38;;;32.59;39.14
61742;BME280;47650;49.848;9.620;2023-07-29T11:13:35;98869.97;;;32.34;39.16
61742;BME280;47650;49.848;9.620;2023-07-29T11:16:01;98880.22;;;29.88;42.77
61742;BME280;47650;49.848;9.620;2023-07-29T11:18:34;98882.69;;;31.88;39.03
61742;BME280;47650;49.848;9.620;2023-07-29T11:21:02;98872.09;;;33.64;35.36
61742;BME280;47650;49.848;9.620;2023-07-29T11:23:35;98871.59;;;31.52;38.46
61742;BME280;47650;49.848;9.620;2023-07-29T11:26:01;98869.47;;;34.56;33.38
61742;BME280;47650;49.848;9.620;2023-07-29T11:28:38;98853.75;;;34.22;33.25
61742;BME280;47650;49.848;9.620;2023-07-29T11:31:05;98854.53;;;33.42;35.78
61742;BME280;47650;49.848;9.620;2023-07-29T11:33:31;98861.28;;;33.99;32.73
61742;BME280;47650;49.848;9.620;2023-07-29T11:35:56;98841.31;;;31.29;36.78
61742;BME280;47650;49.848;9.620;2023-07-29T11:38:22;98858.75;;;33.17;34.90
61742;BME280;47650;49.848;9.620;2023-07-29T11:40:56;98869.88;;;29.85;40.80
61742;BME280;47650;49.848;9.620;2023-07-29T11:45:49;98875.53;;;27.95;44.97
61742;BME280;47650;49.848;9.620;2023-07-29T11:48:17;98867.38;;;26.57;48.79
61742;BME280;47650;49.848;9.620;2023-07-29T11:50:43;98878.06;;;27.61;47.25
61742;BME280;47650;49.848;9.620;2023-07-29T11:53:10;98846.25;;;27.15;47.58
61742;BME280;47650;49.848;9.620;2023-07-29T11:55:39;98840.38;;;28.04;46.72
61742;BME280;47650;49.848;9.620;2023-07-29T11:58:04;98809.56;;;28.09;44.77
61742;BME280;47650;49.848;9.620;2023-07-29T12:00:34;98821.25;;;32.90;37.64
61742;BME280;47650;49.848;9.620;2023-07-29T12:02:59;98815.34;;;32.96;35.43
61742;BME280;47650;49.848;9.620;2023-07-29T12:05:25;98820.88;;;30.88;37.10
61742;BME280;47650;49.848;9.620;2023-07-29T12:07:51;98795.84;;;30.24;38.68
61742;BME280;47650;49.848;9.620;2023-07-29T12:10:16;98821.66;;;30.75;37.63
61742;BME280;47650;49.848;9.620;2023-07-29T12:12:49;98795.31;;;30.79;38.63
61742;BME280;47650;49.848;9.620;2023-07-29T12:15:28;98817.56;;;30.15;38.66
61742;BME280;47650;49.848;9.620;2023-07-29T12:17:58;98804.81;;;34.01;32.82
61742;BME280;47650;49.848;9.620;2023-07-29T12:20:24;98758.38;;;34.17;31.56
61742;BME280;47650;49.848;9.620;2023-07-29T12:22:54;98795.81;;;34.62;31.10
61742;BME280;47650;49.848;9.620;2023-07-29T12:25:21;98702.25;;;35.09;28.91
61742;BME280;47650;49.848;9.620;2023-07-29T12:27:47;98795.13;;;34.13;30.56
61742;BME280;47650;49.848;9.620;2023-07-29T12:30:14;98794.13;;;32.29;34.07
61742;BME280;47650;49.848;9.620;2023-07-29T12:32:46;98772.91;;;29.04;39.01
61742;BME280;47650;49.848;9.620;2023-07-29T12:35:12;98809.63;;;29.95;38.42
61742;BME280;47650;49.848;9.620;2023-07-29T12:37:37;98797.72;;;30.48;37.44
61742;BME280;47650;49.848;9.620;2023-07-29T12:40:04;98800.56;;;29.75;39.11
61742;BME280;47650;49.848;9.620;2023-07-29T12:42:29;98822.03;;;28.15;42.03
61742;BME280;47650;49.848;9.620;2023-07-29T12:44:55;98798.28;;;30.64;39.52
61742;BME280;47650;49.848;9.620;2023-07-29T12:47:22;98799.78;;;30.75;38.92
61742;BME280;47650;49.848;9.620;2023-07-29T12:49:48;98802.97;;;31.29;38.79
61742;BME280;47650;49.848;9.620;2023-07-29T12:52:15;98809.34;;;32.58;36.20
61742;BME280;47650;49.848;9.620;2023-07-29T12:54:41;98802.06;;;32.67;36.01
61742;BME280;47650;49.848;9.620;2023-07-29T12:57:09;98803.69;;;31.35;37.02
61742;BME280;47650;49.848;9.620;2023-07-29T12:59:35;98801.44;;;33.56;33.87
61742;BME280;47650;49.848;9.620;2023-07-29T13:02:06;98818.13;;;33.05;34.24
61742;BME280;47650;49.848;9.620;2023-07-29T13:04:31;98780.28;;;35.99;30.73
61742;BME280;47650;49.848;9.620;2023-07-29T13:06:57;98801.88;;;35.97;30.92
61742;BME280;47650;49.848;9.620;2023-07-29T13:09:25;98796.44;;;34.59;31.15